Temp: 10.2°C   Baro: 1017.4mb
  Wind: 4.0mph   Dir: NNW (342°)
  Rain: 0.0mm (0.0mm/hr)
  Sun: 313W/m2  Humidity: 60%

Historic data

Bath Spa Weather Station Historical Data
Daily Summary for January 31, 2023 Units:  Both    English   Metric
Daily Weekly Monthly Yearly Custom
  High: Low: Average:
Temperature: 51.4 °F /  10.8 °C 40.1 °F /  4.5 °C 45.3 °F /  7.4 °C
Dew Point: 47.3 °F /  8.5 °C 36.1 °F /  2.3 °C 40.5 °F /  4.7 °C
Humidity: 93% 69.2% 83%
Wind Speed: 13.4mph /  21.6km/h - 6mph /  9.7km/h
Wind Gust: 26mph /  41.8km/h - -
Wind- - West
Pressure: 30.38 in /  1028.7 hPa 30.28 in /  1025.3 hPa -
Precipitation: 0.00 in /  0 mm    
Historical Graphs
 
 
Tabular Data for January 31, 2023
Time Temperature Dew Point Pressure Wind Wind Speed Wind Gust Humidity Rainfall Rate (Hourly) solar
00:09 40.1 °F /  4.5 °C 37.4 °F /  3 °C 30.38in /  1028.7hPa WSW 2.8mph /  4.5km/h 5mph /  8km/h 90% 0.00in /  0mm 0 W/m2
00:14 40.3 °F /  4.6 °C 37.6 °F /  3.1 °C 30.38in /  1028.7hPa WSW 2.3mph /  3.7km/h 4mph /  6.4km/h 90% 0.00in /  0mm 0 W/m2
00:19 40.3 °F /  4.6 °C 37.6 °F /  3.1 °C 30.38in /  1028.7hPa WSW 2.9mph /  4.7km/h 6mph /  9.7km/h 90% 0.00in /  0mm 0 W/m2
00:24 40.3 °F /  4.6 °C 37.6 °F /  3.1 °C 30.37in /  1028.3hPa WSW 2.9mph /  4.7km/h 6mph /  9.7km/h 90% 0.00in /  0mm 0 W/m2
00:29 40.5 °F /  4.7 °C 37.8 °F /  3.2 °C 30.38in /  1028.7hPa WSW 4.1mph /  6.6km/h 8mph /  12.9km/h 90% 0.00in /  0mm 0 W/m2
00:34 40.5 °F /  4.7 °C 37.8 °F /  3.2 °C 30.38in /  1028.7hPa WSW 4mph /  6.4km/h 8mph /  12.9km/h 90% 0.00in /  0mm 0 W/m2
00:39 40.5 °F /  4.7 °C 37.8 °F /  3.2 °C 30.37in /  1028.3hPa WSW 3.6mph /  5.8km/h 8mph /  12.9km/h 90% 0.00in /  0mm 0 W/m2
00:44 40.6 °F /  4.8 °C 37.8 °F /  3.2 °C 30.37in /  1028.3hPa WSW 4.5mph /  7.2km/h 8mph /  12.9km/h 90% 0.00in /  0mm 0 W/m2
00:49 40.7 °F /  4.8 °C 38 °F /  3.3 °C 30.37in /  1028.3hPa WSW 4.9mph /  7.9km/h 10mph /  16.1km/h 90% 0.00in /  0mm 0 W/m2
00:54 40.8 °F /  4.9 °C 38.1 °F /  3.4 °C 30.37in /  1028.3hPa WSW 3.9mph /  6.3km/h 9mph /  14.5km/h 90% 0.00in /  0mm 0 W/m2
00:59 41 °F /  5 °C 38 °F /  3.3 °C 30.37in /  1028.3hPa SW 4.9mph /  7.9km/h 9mph /  14.5km/h 89.4% 0.00in /  0mm 0 W/m2
01:04 41.2 °F /  5.1 °C 38.1 °F /  3.4 °C 30.37in /  1028.3hPa WSW 5.3mph /  8.5km/h 10mph /  16.1km/h 89% 0.00in /  0mm 0 W/m2
01:09 41.3 °F /  5.2 °C 38.2 °F /  3.4 °C 30.37in /  1028.3hPa SW 5mph /  8km/h 10mph /  16.1km/h 89% 0.00in /  0mm 0 W/m2
01:14 41.3 °F /  5.2 °C 38.1 °F /  3.4 °C 30.37in /  1028.3hPa WSW 2.4mph /  3.9km/h 5mph /  8km/h 88.6% 0.00in /  0mm 0 W/m2
01:19 41.2 °F /  5.1 °C 37.9 °F /  3.3 °C 30.36in /  1028hPa West 2.6mph /  4.2km/h 6mph /  9.7km/h 88% 0.00in /  0mm 0 W/m2
01:24 41.2 °F /  5.1 °C 37.9 °F /  3.3 °C 30.36in /  1028hPa West 1.9mph /  3.1km/h 4mph /  6.4km/h 88% 0.00in /  0mm 0 W/m2
01:29 41 °F /  5 °C 37.8 °F /  3.2 °C 30.36in /  1028hPa West 3.8mph /  6.1km/h 6mph /  9.7km/h 88% 0.00in /  0mm 0 W/m2
01:34 41 °F /  5 °C 37.8 °F /  3.2 °C 30.36in /  1028hPa West 2.6mph /  4.2km/h 5mph /  8km/h 88% 0.00in /  0mm 0 W/m2
01:39 41.1 °F /  5.1 °C 37.9 °F /  3.3 °C 30.35in /  1027.7hPa West 1.9mph /  3.1km/h 4mph /  6.4km/h 88% 0.00in /  0mm 0 W/m2
01:44 41.2 °F /  5.1 °C 37.9 °F /  3.3 °C 30.35in /  1027.7hPa West 2mph /  3.2km/h 4mph /  6.4km/h 88% 0.00in /  0mm 0 W/m2
01:49 41.2 °F /  5.1 °C 37.9 °F /  3.3 °C 30.36in /  1028hPa West 2.2mph /  3.5km/h 5mph /  8km/h 88% 0.00in /  0mm 0 W/m2
01:54 41.3 °F /  5.2 °C 38 °F /  3.3 °C 30.35in /  1027.7hPa West 2.5mph /  4km/h 5mph /  8km/h 88% 0.00in /  0mm 0 W/m2
01:59 41.4 °F /  5.2 °C 38.1 °F /  3.4 °C 30.35in /  1027.7hPa West 3.8mph /  6.1km/h 6mph /  9.7km/h 88% 0.00in /  0mm 0 W/m2
02:04 41.4 °F /  5.2 °C 38.1 °F /  3.4 °C 30.35in /  1027.7hPa West 2.8mph /  4.5km/h 7mph /  11.3km/h 88% 0.00in /  0mm 0 W/m2
02:09 41.5 °F /  5.3 °C 38.3 °F /  3.5 °C 30.35in /  1027.7hPa West 3.3mph /  5.3km/h 6mph /  9.7km/h 88% 0.00in /  0mm 0 W/m2
02:14 41.5 °F /  5.3 °C 38.3 °F /  3.5 °C 30.35in /  1027.7hPa West 3.1mph /  5km/h 6mph /  9.7km/h 88% 0.00in /  0mm 0 W/m2
02:19 41.5 °F /  5.3 °C 38.3 °F /  3.5 °C 30.35in /  1027.7hPa West 2mph /  3.2km/h 6mph /  9.7km/h 88% 0.00in /  0mm 0 W/m2
02:24 41.5 °F /  5.3 °C 38.3 °F /  3.5 °C 30.35in /  1027.7hPa West 2.1mph /  3.4km/h 6mph /  9.7km/h 88% 0.00in /  0mm 0 W/m2
02:29 41.5 °F /  5.3 °C 38.3 °F /  3.5 °C 30.35in /  1027.7hPa West 1.6mph /  2.6km/h 4mph /  6.4km/h 88% 0.00in /  0mm 0 W/m2
02:34 41.5 °F /  5.3 °C 38.3 °F /  3.5 °C 30.35in /  1027.7hPa West 1.5mph /  2.4km/h 4mph /  6.4km/h 88% 0.00in /  0mm 0 W/m2
02:39 41.5 °F /  5.3 °C 38.3 °F /  3.5 °C 30.34in /  1027.3hPa West 2.1mph /  3.4km/h 4mph /  6.4km/h 88% 0.00in /  0mm 0 W/m2
02:44 41.5 °F /  5.3 °C 38.3 °F /  3.5 °C 30.35in /  1027.7hPa West 2mph /  3.2km/h 3mph /  4.8km/h 88% 0.00in /  0mm 0 W/m2
02:49 41.5 °F /  5.3 °C 38.3 °F /  3.5 °C 30.34in /  1027.3hPa West 1.2mph /  1.9km/h 3mph /  4.8km/h 88% 0.00in /  0mm 0 W/m2
02:54 41.5 °F /  5.3 °C 38.3 °F /  3.5 °C 30.34in /  1027.3hPa West 0.8mph /  1.3km/h 2mph /  3.2km/h 88% 0.00in /  0mm 0 W/m2
02:59 41.6 °F /  5.3 °C 38.4 °F /  3.6 °C 30.34in /  1027.3hPa West 0.8mph /  1.3km/h 2mph /  3.2km/h 88% 0.00in /  0mm 0 W/m2
03:04 41.7 °F /  5.4 °C 38.5 °F /  3.6 °C 30.34in /  1027.3hPa West 0.5mph /  0.8km/h 3mph /  4.8km/h 88% 0.00in /  0mm 0 W/m2
03:09 41.7 °F /  5.4 °C 38.5 °F /  3.6 °C 30.34in /  1027.3hPa West 1.7mph /  2.7km/h 3mph /  4.8km/h 88% 0.00in /  0mm 0 W/m2
03:14 41.7 °F /  5.4 °C 38.5 °F /  3.6 °C 30.34in /  1027.3hPa West 2.5mph /  4km/h 4mph /  6.4km/h 88% 0.00in /  0mm 0 W/m2
03:19 41.8 °F /  5.4 °C 38.6 °F /  3.7 °C 30.34in /  1027.3hPa West 2.1mph /  3.4km/h 5mph /  8km/h 88% 0.00in /  0mm 0 W/m2
03:24 42 °F /  5.6 °C 38.7 °F /  3.7 °C 30.33in /  1027hPa West 3.1mph /  5km/h 8mph /  12.9km/h 88% 0.00in /  0mm 0 W/m2
03:29 42.1 °F /  5.6 °C 38.8 °F /  3.8 °C 30.33in /  1027hPa West 2.8mph /  4.5km/h 6mph /  9.7km/h 88% 0.00in /  0mm 0 W/m2
03:34 42 °F /  5.6 °C 38.8 °F /  3.8 °C 30.32in /  1026.6hPa West 2.9mph /  4.7km/h 5mph /  8km/h 88% 0.00in /  0mm 0 W/m2
03:39 41.9 °F /  5.5 °C 38.7 °F /  3.7 °C 30.33in /  1027hPa WNW 4.4mph /  7.1km/h 7mph /  11.3km/h 88% 0.00in /  0mm 0 W/m2
03:44 41.7 °F /  5.4 °C 38.5 °F /  3.6 °C 30.33in /  1027hPa West 4.2mph /  6.8km/h 6mph /  9.7km/h 88% 0.00in /  0mm 0 W/m2
03:49 41.6 °F /  5.3 °C 38.4 °F /  3.6 °C 30.32in /  1026.6hPa West 3.6mph /  5.8km/h 7mph /  11.3km/h 88% 0.00in /  0mm 0 W/m2
03:54 41.5 °F /  5.3 °C 38.2 °F /  3.4 °C 30.32in /  1026.6hPa West 3.3mph /  5.3km/h 6mph /  9.7km/h 88% 0.00in /  0mm 0 W/m2
03:59 41.3 °F /  5.2 °C 38 °F /  3.3 °C 30.32in /  1026.6hPa WSW 3.7mph /  6km/h 7mph /  11.3km/h 88% 0.00in /  0mm 0 W/m2
04:04 41.2 °F /  5.1 °C 37.9 °F /  3.3 °C 30.32in /  1026.6hPa WSW 2.5mph /  4km/h 6mph /  9.7km/h 88% 0.00in /  0mm 0 W/m2
04:09 41 °F /  5 °C 37.8 °F /  3.2 °C 30.32in /  1026.6hPa WSW 2.5mph /  4km/h 9mph /  14.5km/h 88% 0.00in /  0mm 0 W/m2
04:14 40.8 °F /  4.9 °C 37.6 °F /  3.1 °C 30.32in /  1026.6hPa West 2mph /  3.2km/h 6mph /  9.7km/h 88% 0.00in /  0mm 0 W/m2
04:19 40.8 °F /  4.9 °C 37.6 °F /  3.1 °C 30.32in /  1026.6hPa WSW 3.5mph /  5.6km/h 8mph /  12.9km/h 88% 0.00in /  0mm 0 W/m2
04:24 40.6 °F /  4.8 °C 37.4 °F /  3 °C 30.32in /  1026.6hPa West 4.2mph /  6.8km/h 6mph /  9.7km/h 88% 0.00in /  0mm 0 W/m2
04:29 40.6 °F /  4.8 °C 37.4 °F /  3 °C 30.32in /  1026.6hPa WSW 3.2mph /  5.1km/h 7mph /  11.3km/h 88% 0.00in /  0mm 0 W/m2
04:34 40.6 °F /  4.8 °C 37.4 °F /  3 °C 30.32in /  1026.6hPa West 4.8mph /  7.7km/h 8mph /  12.9km/h 88% 0.00in /  0mm 0 W/m2
04:39 40.6 °F /  4.8 °C 37.4 °F /  3 °C 30.32in /  1026.6hPa WSW 0.9mph /  1.4km/h 5mph /  8km/h 88% 0.00in /  0mm 0 W/m2
04:44 40.8 °F /  4.9 °C 37.6 °F /  3.1 °C 30.32in /  1026.6hPa WSW 2.4mph /  3.9km/h 5mph /  8km/h 88% 0.00in /  0mm 0 W/m2
04:49 41 °F /  5 °C 37.8 °F /  3.2 °C 30.32in /  1026.6hPa WSW 2.8mph /  4.5km/h 7mph /  11.3km/h 88% 0.00in /  0mm 0 W/m2
04:54 41.2 °F /  5.1 °C 37.9 °F /  3.3 °C 30.31in /  1026.3hPa West 2.9mph /  4.7km/h 6mph /  9.7km/h 88% 0.00in /  0mm 0 W/m2
04:59 41.4 °F /  5.2 °C 38.3 °F /  3.5 °C 30.31in /  1026.3hPa West 1.7mph /  2.7km/h 5mph /  8km/h 88.8% 0.00in /  0mm 0 W/m2
05:04 41.4 °F /  5.2 °C 38.3 °F /  3.5 °C 30.31in /  1026.3hPa West 2.5mph /  4km/h 6mph /  9.7km/h 89% 0.00in /  0mm 0 W/m2
05:09 41.6 °F /  5.3 °C 38.6 °F /  3.7 °C 30.31in /  1026.3hPa WSW 3.8mph /  6.1km/h 7mph /  11.3km/h 89% 0.00in /  0mm 0 W/m2
05:14 41.7 °F /  5.4 °C 38.7 °F /  3.7 °C 30.31in /  1026.3hPa WSW 2.3mph /  3.7km/h 4mph /  6.4km/h 89% 0.00in /  0mm 0 W/m2
05:19 42 °F /  5.6 °C 38.9 °F /  3.8 °C 30.31in /  1026.3hPa WSW 1.3mph /  2.1km/h 5mph /  8km/h 89% 0.00in /  0mm 0 W/m2
05:24 42.1 °F /  5.6 °C 39 °F /  3.9 °C 30.31in /  1026.3hPa WSW 1.3mph /  2.1km/h 3mph /  4.8km/h 89% 0.00in /  0mm 0 W/m2
05:29 42.1 °F /  5.6 °C 39 °F /  3.9 °C 30.31in /  1026.3hPa WSW 1.3mph /  2.1km/h 3mph /  4.8km/h 89% 0.00in /  0mm 0 W/m2
05:34 42.2 °F /  5.7 °C 39.1 °F /  3.9 °C 30.31in /  1026.3hPa WSW 0.8mph /  1.3km/h 3mph /  4.8km/h 89% 0.00in /  0mm 0 W/m2
05:39 42.3 °F /  5.7 °C 39.2 °F /  4 °C 30.30in /  1026hPa WSW 0.2mph /  0.3km/h 2mph /  3.2km/h 89% 0.00in /  0mm 0 W/m2
05:44 42.3 °F /  5.7 °C 39.2 °F /  4 °C 30.30in /  1026hPa Calm   1mph /  1.6km/h 89% 0.00in /  0mm 0 W/m2
05:49 42.3 °F /  5.7 °C 39.2 °F /  4 °C 30.30in /  1026hPa Calm   1mph /  1.6km/h 89% 0.00in /  0mm 0 W/m2
05:54 42.3 °F /  5.7 °C 39.2 °F /  4 °C 30.30in /  1026hPa WSW 0.4mph /  0.6km/h 2mph /  3.2km/h 89% 0.00in /  0mm 0 W/m2
05:59 42.3 °F /  5.7 °C 39.2 °F /  4 °C 30.30in /  1026hPa WSW 0.2mph /  0.3km/h 2mph /  3.2km/h 89% 0.00in /  0mm 0 W/m2
06:04 42.4 °F /  5.8 °C 39.3 °F /  4.1 °C 30.30in /  1026hPa WSW 1.1mph /  1.8km/h 4mph /  6.4km/h 89% 0.00in /  0mm 0 W/m2
06:09 42.9 °F /  6.1 °C 39.9 °F /  4.4 °C 30.30in /  1026hPa West 6.2mph /  10km/h 14mph /  22.5km/h 89% 0.00in /  0mm 0 W/m2
06:14 44.5 °F /  6.9 °C 41.6 °F /  5.3 °C 30.29in /  1025.6hPa West 7mph /  11.3km/h 14mph /  22.5km/h 89.4% 0.00in /  0mm 0 W/m2
06:19 45.2 °F /  7.3 °C 42.5 °F /  5.8 °C 30.29in /  1025.6hPa West 10mph /  16.1km/h 20mph /  32.2km/h 90% 0.00in /  0mm 0 W/m2
06:24 45.7 °F /  7.6 °C 43 °F /  6.1 °C 30.29in /  1025.6hPa WSW 8.3mph /  13.4km/h 20mph /  32.2km/h 90% 0.00in /  0mm 0 W/m2
06:29 45.9 °F /  7.7 °C 43.2 °F /  6.2 °C 30.29in /  1025.6hPa West 7.8mph /  12.6km/h 17mph /  27.4km/h 90% 0.00in /  0mm 0 W/m2
06:34 46 °F /  7.8 °C 43.2 °F /  6.2 °C 30.29in /  1025.6hPa West 9.8mph /  15.8km/h 16mph /  25.7km/h 89.8% 0.00in /  0mm 0 W/m2
06:39 46.1 °F /  7.8 °C 43.4 °F /  6.3 °C 30.29in /  1025.6hPa West 7.6mph /  12.2km/h 13mph /  20.9km/h 90% 0.00in /  0mm 0 W/m2
06:44 46.2 °F /  7.9 °C 43.5 °F /  6.4 °C 30.29in /  1025.6hPa West 8.8mph /  14.2km/h 13mph /  20.9km/h 90% 0.00in /  0mm 0 W/m2
06:49 46.2 °F /  7.9 °C 43.5 °F /  6.4 °C 30.29in /  1025.6hPa West 7.2mph /  11.6km/h 15mph /  24.1km/h 90% 0.00in /  0mm 0 W/m2
06:54 46.4 °F /  8 °C 43.7 °F /  6.5 °C 30.29in /  1025.6hPa West 9mph /  14.5km/h 15mph /  24.1km/h 90% 0.00in /  0mm 0 W/m2
06:59 46.6 °F /  8.1 °C 43.9 °F /  6.6 °C 30.29in /  1025.6hPa West 7.1mph /  11.4km/h 16mph /  25.7km/h 90% 0.00in /  0mm 0 W/m2
07:04 46.7 °F /  8.2 °C 44 °F /  6.7 °C 30.29in /  1025.6hPa West 5.5mph /  8.9km/h 14mph /  22.5km/h 90% 0.00in /  0mm 0 W/m2
07:09 46.8 °F /  8.2 °C 44.1 °F /  6.7 °C 30.29in /  1025.6hPa WNW 6.8mph /  10.9km/h 12mph /  19.3km/h 90% 0.00in /  0mm 0 W/m2
07:14 46.8 °F /  8.2 °C 44.1 °F /  6.7 °C 30.28in /  1025.3hPa West 7.6mph /  12.2km/h 12mph /  19.3km/h 90% 0.00in /  0mm 0 W/m2
07:19 46.8 °F /  8.2 °C 44.1 °F /  6.7 °C 30.29in /  1025.6hPa West 8.2mph /  13.2km/h 16mph /  25.7km/h 90% 0.00in /  0mm 0 W/m2
07:24 46.8 °F /  8.2 °C 44.1 °F /  6.7 °C 30.29in /  1025.6hPa WNW 10.2mph /  16.4km/h 17mph /  27.4km/h 90% 0.00in /  0mm 0 W/m2
07:29 46.9 °F /  8.3 °C 44.2 °F /  6.8 °C 30.29in /  1025.6hPa West 9.1mph /  14.6km/h 15mph /  24.1km/h 90% 0.00in /  0mm 0 W/m2
07:34 46.9 °F /  8.3 °C 44.2 °F /  6.8 °C 30.29in /  1025.6hPa West 8.2mph /  13.2km/h 18mph /  29km/h 90% 0.00in /  0mm 0 W/m2
07:39 46.9 °F /  8.3 °C 44.2 °F /  6.8 °C 30.29in /  1025.6hPa West 8.4mph /  13.5km/h 16mph /  25.7km/h 90% 0.00in /  0mm 0 W/m2
07:44 47 °F /  8.3 °C 44.3 °F /  6.8 °C 30.29in /  1025.6hPa West 8.8mph /  14.2km/h 16mph /  25.7km/h 90% 0.00in /  0mm 0 W/m2
07:49 46.9 °F /  8.3 °C 44.2 °F /  6.8 °C 30.29in /  1025.6hPa West 7.8mph /  12.6km/h 14mph /  22.5km/h 90% 0.00in /  0mm 0 W/m2
07:54 47.1 °F /  8.4 °C 44.4 °F /  6.9 °C 30.29in /  1025.6hPa West 6.8mph /  10.9km/h 14mph /  22.5km/h 90% 0.00in /  0mm 5 W/m2
07:59 47.1 °F /  8.4 °C 44.4 °F /  6.9 °C 30.29in /  1025.6hPa West 9.6mph /  15.4km/h 14mph /  22.5km/h 90% 0.00in /  0mm 7 W/m2
08:04 47.1 °F /  8.4 °C 44.4 °F /  6.9 °C 30.29in /  1025.6hPa West 8.6mph /  13.8km/h 16mph /  25.7km/h 90% 0.00in /  0mm 7 W/m2
08:09 47.1 °F /  8.4 °C 44.4 °F /  6.9 °C 30.29in /  1025.6hPa West 8.7mph /  14km/h 17mph /  27.4km/h 90% 0.00in /  0mm 7 W/m2
08:14 47.3 °F /  8.5 °C 44.6 °F /  7 °C 30.29in /  1025.6hPa West 9.4mph /  15.1km/h 18mph /  29km/h 90% 0.00in /  0mm 9 W/m2
08:19 47.5 °F /  8.6 °C 45 °F /  7.2 °C 30.29in /  1025.6hPa West 13.3mph /  21.4km/h 18mph /  29km/h 91% 0.00in /  0mm 12 W/m2
08:24 47.5 °F /  8.6 °C 45 °F /  7.2 °C 30.29in /  1025.6hPa West 10.6mph /  17.1km/h 17mph /  27.4km/h 91% 0.00in /  0mm 14 W/m2
08:29 47.5 °F /  8.6 °C 45 °F /  7.2 °C 30.29in /  1025.6hPa West 10.4mph /  16.7km/h 19mph /  30.6km/h 91% 0.00in /  0mm 19 W/m2
08:34 47.5 °F /  8.6 °C 45 °F /  7.2 °C 30.29in /  1025.6hPa West 13.2mph /  21.2km/h 21mph /  33.8km/h 91% 0.00in /  0mm 37 W/m2
08:39 47.5 °F /  8.6 °C 45 °F /  7.2 °C 30.29in /  1025.6hPa West 10.6mph /  17.1km/h 18mph /  29km/h 91% 0.00in /  0mm 35 W/m2
08:44 47.5 °F /  8.6 °C 45 °F /  7.2 °C 30.29in /  1025.6hPa West 13mph /  20.9km/h 20mph /  32.2km/h 91% 0.00in /  0mm 58 W/m2
08:49 47.5 °F /  8.6 °C 45.2 °F /  7.3 °C 30.29in /  1025.6hPa West 11.9mph /  19.2km/h 21mph /  33.8km/h 91.8% 0.00in /  0mm 63 W/m2
08:54 47.6 °F /  8.7 °C 45.4 °F /  7.4 °C 30.29in /  1025.6hPa West 8.8mph /  14.2km/h 16mph /  25.7km/h 92% 0.00in /  0mm 51 W/m2
08:59 47.7 °F /  8.7 °C 45.5 °F /  7.5 °C 30.29in /  1025.6hPa West 10mph /  16.1km/h 18mph /  29km/h 92% 0.00in /  0mm 37 W/m2
09:04 47.6 °F /  8.7 °C 45.4 °F /  7.4 °C 30.29in /  1025.6hPa West 7.8mph /  12.6km/h 19mph /  30.6km/h 92% 0.00in /  0mm 28 W/m2
09:09 47.7 °F /  8.7 °C 45.5 °F /  7.5 °C 30.29in /  1025.6hPa West 10.6mph /  17.1km/h 17mph /  27.4km/h 92% 0.00in /  0mm 39 W/m2
09:14 47.7 °F /  8.7 °C 45.5 °F /  7.5 °C 30.29in /  1025.6hPa West 7.6mph /  12.2km/h 16mph /  25.7km/h 92% 0.00in /  0mm 39 W/m2
09:19 47.7 °F /  8.7 °C 45.5 °F /  7.5 °C 30.29in /  1025.6hPa West 8.7mph /  14km/h 19mph /  30.6km/h 92% 0.00in /  0mm 37 W/m2
09:24 47.7 °F /  8.7 °C 45.5 °F /  7.5 °C 30.29in /  1025.6hPa West 11.2mph /  18km/h 16mph /  25.7km/h 92% 0.00in /  0mm 19 W/m2
09:29 47.7 °F /  8.7 °C 45.5 °F /  7.5 °C 30.29in /  1025.6hPa West 7mph /  11.3km/h 18mph /  29km/h 92% 0.00in /  0mm 16 W/m2
09:34 47.7 °F /  8.7 °C 45.5 °F /  7.5 °C 30.29in /  1025.6hPa West 8.8mph /  14.2km/h 18mph /  29km/h 92% 0.00in /  0mm 25 W/m2
09:39 47.7 °F /  8.7 °C 45.6 °F /  7.6 °C 30.29in /  1025.6hPa West 7.9mph /  12.7km/h 14mph /  22.5km/h 92.4% 0.00in /  0mm 26 W/m2
09:44 47.7 °F /  8.7 °C 45.7 °F /  7.6 °C 30.30in /  1026hPa West 9.1mph /  14.6km/h 17mph /  27.4km/h 93% 0.00in /  0mm 47 W/m2
09:49 47.8 °F /  8.8 °C 45.9 °F /  7.7 °C 30.30in /  1026hPa West 7.6mph /  12.2km/h 17mph /  27.4km/h 93% 0.00in /  0mm 58 W/m2
09:54 47.9 °F /  8.8 °C 46 °F /  7.8 °C 30.30in /  1026hPa West 9.8mph /  15.8km/h 17mph /  27.4km/h 93% 0.00in /  0mm 81 W/m2
09:59 48.2 °F /  9 °C 46.2 °F /  7.9 °C 30.29in /  1025.6hPa WNW 8.4mph /  13.5km/h 16mph /  25.7km/h 93% 0.00in /  0mm 121 W/m2
10:04 48.4 °F /  9.1 °C 46.4 °F /  8 °C 30.29in /  1025.6hPa WNW 8.2mph /  13.2km/h 17mph /  27.4km/h 93% 0.00in /  0mm 139 W/m2
10:09 48.6 °F /  9.2 °C 46.6 °F /  8.1 °C 30.29in /  1025.6hPa WNW 9.9mph /  15.9km/h 17mph /  27.4km/h 92.8% 0.00in /  0mm 185 W/m2
10:14 48.7 °F /  9.3 °C 46.8 °F /  8.2 °C 30.30in /  1026hPa West 10.2mph /  16.4km/h 16mph /  25.7km/h 92.8% 0.00in /  0mm 209 W/m2
10:19 48.9 °F /  9.4 °C 46.8 °F /  8.2 °C 30.30in /  1026hPa West 9.2mph /  14.8km/h 19mph /  30.6km/h 92% 0.00in /  0mm 172 W/m2
10:24 49.1 °F /  9.5 °C 46.9 °F /  8.3 °C 30.30in /  1026hPa West 8.8mph /  14.2km/h 16mph /  25.7km/h 92% 0.00in /  0mm 218 W/m2
10:29 49.3 °F /  9.6 °C 47.1 °F /  8.4 °C 30.30in /  1026hPa West 8.6mph /  13.8km/h 18mph /  29km/h 92% 0.00in /  0mm 227 W/m2
10:34 49.5 °F /  9.7 °C 47.3 °F /  8.5 °C 30.30in /  1026hPa WNW 10.2mph /  16.4km/h 17mph /  27.4km/h 92% 0.00in /  0mm 229 W/m2
10:39 49.6 °F /  9.8 °C 47.2 °F /  8.4 °C 30.30in /  1026hPa West 10mph /  16.1km/h 18mph /  29km/h 91.4% 0.00in /  0mm 339 W/m2
10:44 49.8 °F /  9.9 °C 47.3 °F /  8.5 °C 30.30in /  1026hPa West 7.8mph /  12.6km/h 18mph /  29km/h 91% 0.00in /  0mm 309 W/m2
10:49 49.8 °F /  9.9 °C 47.3 °F /  8.5 °C 30.30in /  1026hPa West 7.6mph /  12.2km/h 16mph /  25.7km/h 91% 0.00in /  0mm 227 W/m2
10:54 49.8 °F /  9.9 °C 47 °F /  8.3 °C 30.30in /  1026hPa West 10.8mph /  17.4km/h 19mph /  30.6km/h 90.4% 0.00in /  0mm 202 W/m2
10:59 49.6 °F /  9.8 °C 46.8 °F /  8.2 °C 30.30in /  1026hPa WSW 10.2mph /  16.4km/h 18mph /  29km/h 90% 0.00in /  0mm 220 W/m2
11:04 49.6 °F /  9.8 °C 46.8 °F /  8.2 °C 30.31in /  1026.3hPa West 9.6mph /  15.4km/h 18mph /  29km/h 90% 0.00in /  0mm 188 W/m2
11:09 49.6 °F /  9.8 °C 46.8 °F /  8.2 °C 30.31in /  1026.3hPa West 8mph /  12.9km/h 16mph /  25.7km/h 90% 0.00in /  0mm 225 W/m2
11:14 49.8 °F /  9.9 °C 46.9 °F /  8.3 °C 30.31in /  1026.3hPa West 8.6mph /  13.8km/h 16mph /  25.7km/h 90% 0.00in /  0mm 190 W/m2
11:19 49.6 °F /  9.8 °C 46.7 °F /  8.2 °C 30.31in /  1026.3hPa West 8.8mph /  14.2km/h 17mph /  27.4km/h 89.4% 0.00in /  0mm 163 W/m2
11:24 49.6 °F /  9.8 °C 46.5 °F /  8.1 °C 30.30in /  1026hPa West 6.1mph /  9.8km/h 16mph /  25.7km/h 89% 0.00in /  0mm 207 W/m2
11:29 49.6 °F /  9.8 °C 46.6 °F /  8.1 °C 30.30in /  1026hPa West 9.4mph /  15.1km/h 16mph /  25.7km/h 89% 0.00in /  0mm 253 W/m2
11:34 49.8 °F /  9.9 °C 46.8 °F /  8.2 °C 30.31in /  1026.3hPa West 7.2mph /  11.6km/h 13mph /  20.9km/h 89% 0.00in /  0mm 276 W/m2
11:39 50.1 °F /  10.1 °C 47 °F /  8.3 °C 30.30in /  1026hPa West 4.2mph /  6.8km/h 10mph /  16.1km/h 89% 0.00in /  0mm 290 W/m2
11:44 50.2 °F /  10.1 °C 47.1 °F /  8.4 °C 30.30in /  1026hPa WNW 5.3mph /  8.5km/h 14mph /  22.5km/h 89% 0.00in /  0mm 315 W/m2
11:49 50.2 °F /  10.1 °C 47.1 °F /  8.4 °C 30.30in /  1026hPa West 8.8mph /  14.2km/h 16mph /  25.7km/h 89% 0.00in /  0mm 309 W/m2
11:54 50.4 °F /  10.2 °C 46.9 °F /  8.3 °C 30.29in /  1025.6hPa West 9.2mph /  14.8km/h 16mph /  25.7km/h 88% 0.00in /  0mm 237 W/m2
11:59 50.3 °F /  10.2 °C 46.7 °F /  8.2 °C 30.29in /  1025.6hPa West 8.8mph /  14.2km/h 13mph /  20.9km/h 87.6% 0.00in /  0mm 206 W/m2
12:04 50.1 °F /  10.1 °C 46.3 °F /  7.9 °C 30.30in /  1026hPa West 8.8mph /  14.2km/h 14mph /  22.5km/h 87% 0.00in /  0mm 218 W/m2
12:09 50.1 °F /  10.1 °C 46.2 °F /  7.9 °C 30.30in /  1026hPa West 10.6mph /  17.1km/h 19mph /  30.6km/h 86.6% 0.00in /  0mm 301 W/m2
12:14 50.4 °F /  10.2 °C 46.4 °F /  8 °C 30.30in /  1026hPa West 8mph /  12.9km/h 17mph /  27.4km/h 86% 0.00in /  0mm 327 W/m2
12:19 50.6 °F /  10.3 °C 46.3 °F /  7.9 °C 30.30in /  1026hPa West 8.8mph /  14.2km/h 15mph /  24.1km/h 85.2% 0.00in /  0mm 362 W/m2
12:24 50.7 °F /  10.4 °C 46.2 °F /  7.9 °C 30.30in /  1026hPa West 9.4mph /  15.1km/h 16mph /  25.7km/h 84.4% 0.00in /  0mm 332 W/m2
12:29 50.7 °F /  10.4 °C 45.8 °F /  7.7 °C 30.30in /  1026hPa West 7.9mph /  12.7km/h 15mph /  24.1km/h 83.4% 0.00in /  0mm 258 W/m2
12:34 50.7 °F /  10.4 °C 45.5 °F /  7.5 °C 30.31in /  1026.3hPa WNW 6.8mph /  10.9km/h 17mph /  27.4km/h 82.2% 0.00in /  0mm 313 W/m2
12:39 50.9 °F /  10.5 °C 44.8 °F /  7.1 °C 30.31in /  1026.3hPa WNW 11.2mph /  18km/h 18mph /  29km/h 79.6% 0.00in /  0mm 343 W/m2
12:44 51 °F /  10.6 °C 43.9 °F /  6.6 °C 30.30in /  1026hPa West 9.8mph /  15.8km/h 18mph /  29km/h 76.8% 0.00in /  0mm 403 W/m2
12:49 51.3 °F /  10.7 °C 43.7 °F /  6.5 °C 30.30in /  1026hPa WNW 9.6mph /  15.4km/h 21mph /  33.8km/h 75.4% 0.00in /  0mm 388 W/m2
12:54 51.4 °F /  10.8 °C 43.6 °F /  6.4 °C 30.30in /  1026hPa WNW 12.2mph /  19.6km/h 26mph /  41.8km/h 74.4% 0.00in /  0mm 332 W/m2
12:59 51.1 °F /  10.6 °C 42.4 °F /  5.8 °C 30.30in /  1026hPa West 10.8mph /  17.4km/h 19mph /  30.6km/h 72% 0.00in /  0mm 274 W/m2
13:04 51.1 °F /  10.6 °C 42.4 °F /  5.8 °C 30.30in /  1026hPa West 8.4mph /  13.5km/h 17mph /  27.4km/h 72% 0.00in /  0mm 278 W/m2
13:09 51 °F /  10.6 °C 42.1 °F /  5.6 °C 30.30in /  1026hPa WNW 12.4mph /  20km/h 20mph /  32.2km/h 71.4% 0.00in /  0mm 241 W/m2
13:14 50.7 °F /  10.4 °C 41.7 °F /  5.4 °C 30.30in /  1026hPa WNW 9.1mph /  14.6km/h 19mph /  30.6km/h 71% 0.00in /  0mm 255 W/m2
13:19 50.7 °F /  10.4 °C 41.7 °F /  5.4 °C 30.30in /  1026hPa West 8.4mph /  13.5km/h 15mph /  24.1km/h 71% 0.00in /  0mm 272 W/m2
13:24 51 °F /  10.6 °C 42 °F /  5.6 °C 30.30in /  1026hPa WNW 10mph /  16.1km/h 15mph /  24.1km/h 71% 0.00in /  0mm 279 W/m2
13:29 51.1 °F /  10.6 °C 42 °F /  5.6 °C 30.30in /  1026hPa WNW 9.1mph /  14.6km/h 16mph /  25.7km/h 70.8% 0.00in /  0mm 288 W/m2
13:34 51.2 °F /  10.7 °C 41.9 °F /  5.5 °C 30.30in /  1026hPa West 4.9mph /  7.9km/h 15mph /  24.1km/h 70.2% 0.00in /  0mm 274 W/m2
13:39 51.4 °F /  10.8 °C 41.8 °F /  5.4 °C 30.30in /  1026hPa West 7mph /  11.3km/h 15mph /  24.1km/h 69.8% 0.00in /  0mm 267 W/m2
13:44 51 °F /  10.6 °C 41.3 °F /  5.2 °C 30.30in /  1026hPa West 13.4mph /  21.6km/h 20mph /  32.2km/h 69.2% 0.00in /  0mm 250 W/m2
13:49 50.7 °F /  10.4 °C 41.9 °F /  5.5 °C 30.30in /  1026hPa WNW 10.2mph /  16.4km/h 19mph /  30.6km/h 71.6% 0.00in /  0mm 162 W/m2
13:54 50.5 °F /  10.3 °C 42.2 °F /  5.7 °C 30.30in /  1026hPa WNW 6.9mph /  11.1km/h 14mph /  22.5km/h 72.8% 0.00in /  0mm 142 W/m2
13:59 50.8 °F /  10.4 °C 42.5 °F /  5.8 °C 30.30in /  1026hPa WNW 7mph /  11.3km/h 14mph /  22.5km/h 72.8% 0.00in /  0mm 264 W/m2
14:04 51.2 °F /  10.7 °C 42.4 °F /  5.8 °C 30.30in /  1026hPa WNW 7.2mph /  11.6km/h 16mph /  25.7km/h 71.8% 0.00in /  0mm 272 W/m2
14:09 51.2 °F /  10.7 °C 42.2 °F /  5.7 °C 30.30in /  1026hPa WNW 8.8mph /  14.2km/h 16mph /  25.7km/h 71% 0.00in /  0mm 274 W/m2
14:14 51.3 °F /  10.7 °C 42.3 °F /  5.7 °C 30.29in /  1025.6hPa WNW 7.7mph /  12.4km/h 17mph /  27.4km/h 71% 0.00in /  0mm 257 W/m2
14:19 51.3 °F /  10.7 °C 42.1 °F /  5.6 °C 30.29in /  1025.6hPa West 10.2mph /  16.4km/h 17mph /  27.4km/h 70.6% 0.00in /  0mm 220 W/m2
14:24 51 °F /  10.6 °C 41.9 °F /  5.5 °C 30.30in /  1026hPa NW 11.4mph /  18.3km/h 18mph /  29km/h 70.8% 0.00in /  0mm 246 W/m2
14:29 51 °F /  10.6 °C 42 °F /  5.6 °C 30.29in /  1025.6hPa WNW 11mph /  17.7km/h 19mph /  30.6km/h 71% 0.00in /  0mm 253 W/m2
14:34 51.3 °F /  10.7 °C 42.3 °F /  5.7 °C 30.30in /  1026hPa WNW 8.8mph /  14.2km/h 16mph /  25.7km/h 71% 0.00in /  0mm 232 W/m2
14:39 51.3 °F /  10.7 °C 42.4 °F /  5.8 °C 30.29in /  1025.6hPa WNW 7.8mph /  12.6km/h 16mph /  25.7km/h 71.4% 0.00in /  0mm 197 W/m2
14:44 51.1 °F /  10.6 °C 42.4 °F /  5.8 °C 30.30in /  1026hPa West 8.8mph /  14.2km/h 15mph /  24.1km/h 72% 0.00in /  0mm 172 W/m2
14:49 50.7 °F /  10.4 °C 41.7 °F /  5.4 °C 30.30in /  1026hPa West 12.1mph /  19.5km/h 20mph /  32.2km/h 71% 0.00in /  0mm 176 W/m2
14:54 50.7 °F /  10.4 °C 41.5 °F /  5.3 °C 30.30in /  1026hPa WNW 8mph /  12.9km/h 16mph /  25.7km/h 70.4% 0.00in /  0mm 163 W/m2
14:59 50.6 °F /  10.3 °C 41.4 °F /  5.2 °C 30.30in /  1026hPa WNW 10mph /  16.1km/h 18mph /  29km/h 70.4% 0.00in /  0mm 155 W/m2
15:04 50.3 °F /  10.2 °C 40.9 °F /  4.9 °C 30.30in /  1026hPa West 8.8mph /  14.2km/h 17mph /  27.4km/h 70% 0.00in /  0mm 146 W/m2
15:09 50.3 °F /  10.2 °C 41 °F /  5 °C 30.30in /  1026hPa West 7.8mph /  12.6km/h 18mph /  29km/h 70.2% 0.00in /  0mm 141 W/m2
15:14 50.3 °F /  10.2 °C 40.9 °F /  4.9 °C 30.30in /  1026hPa NW 7.4mph /  11.9km/h 16mph /  25.7km/h 70% 0.00in /  0mm 130 W/m2
15:19 50.3 °F /  10.2 °C 40.9 °F /  4.9 °C 30.31in /  1026.3hPa WNW 7.2mph /  11.6km/h 14mph /  22.5km/h 70% 0.00in /  0mm 121 W/m2
15:23 50.2 °F /  10.1 °C 40.8 °F /  4.9 °C 30.30in /  1026hPa West 7.2mph /  11.6km/h 12mph /  19.3km/h 70% 0.00in /  0mm 116 W/m2
15:29 50.2 °F /  10.1 °C 40.8 °F /  4.9 °C 30.31in /  1026.3hPa West 8.5mph /  13.7km/h 15mph /  24.1km/h 70% 0.00in /  0mm 107 W/m2
15:34 49.8 °F /  9.9 °C 40.7 °F /  4.8 °C 30.31in /  1026.3hPa WNW 7.6mph /  12.2km/h 15mph /  24.1km/h 70.6% 0.00in /  0mm 104 W/m2
15:39 49.8 °F /  9.9 °C 40.7 °F /  4.8 °C 30.31in /  1026.3hPa WNW 7.4mph /  11.9km/h 15mph /  24.1km/h 70.8% 0.00in /  0mm 93 W/m2
15:44 49.8 °F /  9.9 °C 40.8 °F /  4.9 °C 30.30in /  1026hPa West 4.4mph /  7.1km/h 10mph /  16.1km/h 71% 0.00in /  0mm 81 W/m2
15:49 49.7 °F /  9.8 °C 40.7 °F /  4.8 °C 30.31in /  1026.3hPa West 10.6mph /  17.1km/h 14mph /  22.5km/h 71% 0.00in /  0mm 76 W/m2
15:54 49.5 °F /  9.7 °C 40.5 °F /  4.7 °C 30.31in /  1026.3hPa WNW 5.1mph /  8.2km/h 9mph /  14.5km/h 71% 0.00in /  0mm 67 W/m2
15:59 49.4 °F /  9.7 °C 40.4 °F /  4.7 °C 30.31in /  1026.3hPa West 2.4mph /  3.9km/h 8mph /  12.9km/h 71.2% 0.00in /  0mm 53 W/m2
16:04 49.1 °F /  9.5 °C 40.5 °F /  4.7 °C 30.31in /  1026.3hPa West 6.2mph /  10km/h 9mph /  14.5km/h 72% 0.00in /  0mm 47 W/m2
16:09 48.8 °F /  9.3 °C 40.2 °F /  4.6 °C 30.31in /  1026.3hPa West 5.2mph /  8.4km/h 9mph /  14.5km/h 72% 0.00in /  0mm 42 W/m2
16:14 48.6 °F /  9.2 °C 39.8 °F /  4.3 °C 30.31in /  1026.3hPa West 3.3mph /  5.3km/h 9mph /  14.5km/h 71.6% 0.00in /  0mm 32 W/m2
16:19 48.3 °F /  9.1 °C 39.7 °F /  4.3 °C 30.31in /  1026.3hPa West 6.4mph /  10.3km/h 11mph /  17.7km/h 72% 0.00in /  0mm 28 W/m2
16:24 47.9 °F /  8.8 °C 39.3 °F /  4.1 °C 30.32in /  1026.6hPa WNW 7.1mph /  11.4km/h 11mph /  17.7km/h 72% 0.00in /  0mm 21 W/m2
16:29 47.7 °F /  8.7 °C 39 °F /  3.9 °C 30.32in /  1026.6hPa WNW 7.6mph /  12.2km/h 11mph /  17.7km/h 72% 0.00in /  0mm 19 W/m2
16:34 47.4 °F /  8.6 °C 39 °F /  3.9 °C 30.32in /  1026.6hPa West 7.5mph /  12.1km/h 11mph /  17.7km/h 72.6% 0.00in /  0mm 18 W/m2
16:39 47.1 °F /  8.4 °C 38.8 °F /  3.8 °C 30.32in /  1026.6hPa WNW 5.6mph /  9km/h 13mph /  20.9km/h 73% 0.00in /  0mm 16 W/m2
16:44 46.9 °F /  8.3 °C 38.7 °F /  3.7 °C 30.32in /  1026.6hPa WNW 7.1mph /  11.4km/h 13mph /  20.9km/h 73% 0.00in /  0mm 12 W/m2
16:49 46.7 °F /  8.2 °C 38.5 °F /  3.6 °C 30.32in /  1026.6hPa West 7.9mph /  12.7km/h 13mph /  20.9km/h 73% 0.00in /  0mm 7 W/m2
16:54 46.6 °F /  8.1 °C 38.6 °F /  3.7 °C 30.32in /  1026.6hPa West 7mph /  11.3km/h 12mph /  19.3km/h 73.6% 0.00in /  0mm 5 W/m2
16:59 46.2 °F /  7.9 °C 38.5 °F /  3.6 °C 30.32in /  1026.6hPa West 7.8mph /  12.6km/h 12mph /  19.3km/h 74% 0.00in /  0mm 0 W/m2
17:04 46 °F /  7.8 °C 38.3 °F /  3.5 °C 30.32in /  1026.6hPa WNW 7mph /  11.3km/h 11mph /  17.7km/h 74% 0.00in /  0mm 0 W/m2
17:09 45.9 °F /  7.7 °C 38.1 °F /  3.4 °C 30.32in /  1026.6hPa WNW 5.6mph /  9km/h 12mph /  19.3km/h 74% 0.00in /  0mm 0 W/m2
17:14 45.8 °F /  7.7 °C 38.1 °F /  3.4 °C 30.32in /  1026.6hPa WNW 7mph /  11.3km/h 9mph /  14.5km/h 74.4% 0.00in /  0mm 0 W/m2
17:19 45.7 °F /  7.6 °C 38.3 °F /  3.5 °C 30.32in /  1026.6hPa WNW 3.3mph /  5.3km/h 13mph /  20.9km/h 75% 0.00in /  0mm 0 W/m2
17:24 45.6 °F /  7.6 °C 38.2 °F /  3.4 °C 30.32in /  1026.6hPa West 5.6mph /  9km/h 12mph /  19.3km/h 75% 0.00in /  0mm 0 W/m2
17:29 45.5 °F /  7.5 °C 38.1 °F /  3.4 °C 30.32in /  1026.6hPa WNW 4.9mph /  7.9km/h 9mph /  14.5km/h 75% 0.00in /  0mm 0 W/m2
17:34 45.3 °F /  7.4 °C 37.9 °F /  3.3 °C 30.32in /  1026.6hPa West 5.2mph /  8.4km/h 10mph /  16.1km/h 75% 0.00in /  0mm 0 W/m2
17:39 45.3 °F /  7.4 °C 38 °F /  3.3 °C 30.32in /  1026.6hPa NW 4.5mph /  7.2km/h 10mph /  16.1km/h 75.5% 0.00in /  0mm 0 W/m2
17:44 45.1 °F /  7.3 °C 37.9 °F /  3.3 °C 30.32in /  1026.6hPa West 4.8mph /  7.7km/h 11mph /  17.7km/h 75.8% 0.00in /  0mm 0 W/m2
17:49 45.1 °F /  7.3 °C 37.9 °F /  3.3 °C 30.32in /  1026.6hPa WNW 5.8mph /  9.3km/h 13mph /  20.9km/h 76% 0.00in /  0mm 0 W/m2
17:54 45.1 °F /  7.3 °C 37.9 °F /  3.3 °C 30.32in /  1026.6hPa WNW 6.4mph /  10.3km/h 11mph /  17.7km/h 76% 0.00in /  0mm 0 W/m2
17:59 45.1 °F /  7.3 °C 37.9 °F /  3.3 °C 30.32in /  1026.6hPa WNW 4.2mph /  6.8km/h 10mph /  16.1km/h 76% 0.00in /  0mm 0 W/m2
18:04 45 °F /  7.2 °C 37.9 °F /  3.3 °C 30.32in /  1026.6hPa WNW 4mph /  6.4km/h 9mph /  14.5km/h 76% 0.00in /  0mm 0 W/m2
18:09 44.8 °F /  7.1 °C 37.8 °F /  3.2 °C 30.32in /  1026.6hPa West 3.7mph /  6km/h 8mph /  12.9km/h 76% 0.00in /  0mm 0 W/m2
18:14 44.5 °F /  6.9 °C 37.5 °F /  3.1 °C 30.32in /  1026.6hPa WNW 2.4mph /  3.9km/h 7mph /  11.3km/h 76% 0.00in /  0mm 0 W/m2
18:19 44.2 °F /  6.8 °C 37.2 °F /  2.9 °C 30.33in /  1027hPa WNW 3.7mph /  6km/h 6mph /  9.7km/h 76% 0.00in /  0mm 0 W/m2
18:24 44.1 °F /  6.7 °C 37.5 °F /  3.1 °C 30.33in /  1027hPa WNW 3.3mph /  5.3km/h 7mph /  11.3km/h 77% 0.00in /  0mm 0 W/m2
18:29 43.9 °F /  6.6 °C 37.2 °F /  2.9 °C 30.32in /  1026.6hPa West 4.4mph /  7.1km/h 7mph /  11.3km/h 77% 0.00in /  0mm 0 W/m2
18:34 43.7 °F /  6.5 °C 37 °F /  2.8 °C 30.32in /  1026.6hPa West 3.7mph /  6km/h 7mph /  11.3km/h 77% 0.00in /  0mm 0 W/m2
18:39 43.5 °F /  6.4 °C 37 °F /  2.8 °C 30.32in /  1026.6hPa West 3.7mph /  6km/h 8mph /  12.9km/h 77.8% 0.00in /  0mm 0 W/m2
18:44 43.5 °F /  6.4 °C 37 °F /  2.8 °C 30.32in /  1026.6hPa West 6mph /  9.7km/h 10mph /  16.1km/h 78% 0.00in /  0mm 0 W/m2
18:49 43.4 °F /  6.3 °C 37 °F /  2.8 °C 30.33in /  1027hPa WNW 4.9mph /  7.9km/h 9mph /  14.5km/h 78% 0.00in /  0mm 0 W/m2
18:54 43.3 °F /  6.3 °C 36.9 °F /  2.7 °C 30.33in /  1027hPa WNW 5.2mph /  8.4km/h 9mph /  14.5km/h 78% 0.00in /  0mm 0 W/m2
18:59 43.3 °F /  6.3 °C 36.9 °F /  2.7 °C 30.33in /  1027hPa WNW 4.3mph /  6.9km/h 8mph /  12.9km/h 78% 0.00in /  0mm 0 W/m2
19:04 43.6 °F /  6.4 °C 37 °F /  2.8 °C 30.33in /  1027hPa West 3.5mph /  5.6km/h 7mph /  11.3km/h 77.6% 0.00in /  0mm 0 W/m2
19:09 43.7 °F /  6.5 °C 37 °F /  2.8 °C 30.33in /  1027hPa West 2.5mph /  4km/h 7mph /  11.3km/h 77% 0.00in /  0mm 0 W/m2
19:14 43.5 °F /  6.4 °C 36.9 °F /  2.7 °C 30.33in /  1027hPa West 2.9mph /  4.7km/h 5mph /  8km/h 77% 0.00in /  0mm 0 W/m2
19:19 43.3 °F /  6.3 °C 36.7 °F /  2.6 °C 30.33in /  1027hPa West 2.7mph /  4.3km/h 5mph /  8km/h 77% 0.00in /  0mm 0 W/m2
19:24 43.3 °F /  6.3 °C 36.9 °F /  2.7 °C 30.33in /  1027hPa NW 2.9mph /  4.7km/h 5mph /  8km/h 78% 0.00in /  0mm 0 W/m2
19:29 43.1 °F /  6.2 °C 36.7 °F /  2.6 °C 30.33in /  1027hPa WNW 1.8mph /  2.9km/h 4mph /  6.4km/h 78% 0.00in /  0mm 0 W/m2
19:34 42.9 °F /  6.1 °C 36.6 °F /  2.6 °C 30.33in /  1027hPa WNW 2.8mph /  4.5km/h 5mph /  8km/h 78% 0.00in /  0mm 0 W/m2
19:39 42.6 °F /  5.9 °C 36.3 °F /  2.4 °C 30.33in /  1027hPa West 2.1mph /  3.4km/h 5mph /  8km/h 78.2% 0.00in /  0mm 0 W/m2
19:44 42.5 °F /  5.8 °C 36.4 °F /  2.4 °C 30.33in /  1027hPa NW 1.7mph /  2.7km/h 6mph /  9.7km/h 79% 0.00in /  0mm 0 W/m2
19:49 42.4 °F /  5.8 °C 36.3 °F /  2.4 °C 30.32in /  1026.6hPa NNW 3.2mph /  5.1km/h 5mph /  8km/h 79% 0.00in /  0mm 0 W/m2
19:54 42.3 °F /  5.7 °C 36.1 °F /  2.3 °C 30.33in /  1027hPa NW 3.2mph /  5.1km/h 7mph /  11.3km/h 79% 0.00in /  0mm 0 W/m2
19:59 42.3 °F /  5.7 °C 36.5 °F /  2.5 °C 30.33in /  1027hPa WNW 3.1mph /  5km/h 6mph /  9.7km/h 80% 0.00in /  0mm 0 W/m2
20:04 42.3 °F /  5.7 °C 36.6 °F /  2.6 °C 30.33in /  1027hPa West 3.6mph /  5.8km/h 8mph /  12.9km/h 80% 0.00in /  0mm 0 W/m2
20:09 42.8 °F /  6 °C 37 °F /  2.8 °C 30.33in /  1027hPa WNW 3.2mph /  5.1km/h 8mph /  12.9km/h 80% 0.00in /  0mm 0 W/m2
20:14 43.1 °F /  6.2 °C 37.1 °F /  2.8 °C 30.33in /  1027hPa West 4.5mph /  7.2km/h 9mph /  14.5km/h 79.4% 0.00in /  0mm 0 W/m2
20:19 43.3 °F /  6.3 °C 37.4 °F /  3 °C 30.32in /  1026.6hPa West 6.8mph /  10.9km/h 11mph /  17.7km/h 79.4% 0.00in /  0mm 0 W/m2
20:24 43.7 °F /  6.5 °C 37.9 °F /  3.3 °C 30.33in /  1027hPa West 7mph /  11.3km/h 12mph /  19.3km/h 80% 0.00in /  0mm 0 W/m2
20:29 43.7 °F /  6.5 °C 37.9 °F /  3.3 °C 30.32in /  1026.6hPa West 7.2mph /  11.6km/h 12mph /  19.3km/h 80% 0.00in /  0mm 0 W/m2
20:34 43.6 °F /  6.4 °C 37.9 °F /  3.3 °C 30.32in /  1026.6hPa West 5.4mph /  8.7km/h 10mph /  16.1km/h 80% 0.00in /  0mm 0 W/m2
20:39 43.4 °F /  6.3 °C 37.9 °F /  3.3 °C 30.32in /  1026.6hPa WNW 6.4mph /  10.3km/h 12mph /  19.3km/h 80.6% 0.00in /  0mm 0 W/m2
20:44 43.3 °F /  6.3 °C 37.8 °F /  3.2 °C 30.32in /  1026.6hPa WNW 3.7mph /  6km/h 9mph /  14.5km/h 81% 0.00in /  0mm 0 W/m2
20:49 43 °F /  6.1 °C 37.6 °F /  3.1 °C 30.32in /  1026.6hPa West 6.6mph /  10.6km/h 12mph /  19.3km/h 81% 0.00in /  0mm 0 W/m2
20:54 43 °F /  6.1 °C 37.6 °F /  3.1 °C 30.32in /  1026.6hPa WNW 5.7mph /  9.2km/h 12mph /  19.3km/h 81% 0.00in /  0mm 0 W/m2
20:59 43 °F /  6.1 °C 37.6 °F /  3.1 °C 30.32in /  1026.6hPa West 5.6mph /  9km/h 11mph /  17.7km/h 81% 0.00in /  0mm 0 W/m2
21:04 43 °F /  6.1 °C 37.6 °F /  3.1 °C 30.32in /  1026.6hPa West 5.7mph /  9.2km/h 10mph /  16.1km/h 81.2% 0.00in /  0mm 0 W/m2
21:09 43 °F /  6.1 °C 37.6 °F /  3.1 °C 30.32in /  1026.6hPa WNW 6.1mph /  9.8km/h 10mph /  16.1km/h 81% 0.00in /  0mm 0 W/m2
21:14 42.7 °F /  5.9 °C 37.3 °F /  2.9 °C 30.32in /  1026.6hPa West 5.4mph /  8.7km/h 9mph /  14.5km/h 81% 0.00in /  0mm 0 W/m2
21:19 42.6 °F /  5.9 °C 37.2 °F /  2.9 °C 30.32in /  1026.6hPa West 5.4mph /  8.7km/h 8mph /  12.9km/h 81% 0.00in /  0mm 0 W/m2
21:24 42.4 °F /  5.8 °C 37 °F /  2.8 °C 30.32in /  1026.6hPa WNW 5.5mph /  8.9km/h 9mph /  14.5km/h 81% 0.00in /  0mm 0 W/m2
21:29 42.3 °F /  5.7 °C 36.9 °F /  2.7 °C 30.32in /  1026.6hPa WNW 3.5mph /  5.6km/h 9mph /  14.5km/h 81% 0.00in /  0mm 0 W/m2
21:34 42.3 °F /  5.7 °C 36.9 °F /  2.7 °C 30.32in /  1026.6hPa WNW 3.2mph /  5.1km/h 8mph /  12.9km/h 81% 0.00in /  0mm 0 W/m2
21:39 42.1 °F /  5.6 °C 37 °F /  2.8 °C 30.32in /  1026.6hPa West 3.8mph /  6.1km/h 6mph /  9.7km/h 82% 0.00in /  0mm 0 W/m2
21:44 42.1 °F /  5.6 °C 37 °F /  2.8 °C 30.32in /  1026.6hPa West 3.2mph /  5.1km/h 7mph /  11.3km/h 82% 0.00in /  0mm 0 W/m2
21:49 42.1 °F /  5.6 °C 37 °F /  2.8 °C 30.32in /  1026.6hPa WNW 3.2mph /  5.1km/h 6mph /  9.7km/h 82% 0.00in /  0mm 0 W/m2
21:54 42.3 °F /  5.7 °C 37.3 °F /  2.9 °C 30.32in /  1026.6hPa West 3.8mph /  6.1km/h 8mph /  12.9km/h 82% 0.00in /  0mm 0 W/m2
21:59 42.5 °F /  5.8 °C 37.5 °F /  3.1 °C 30.32in /  1026.6hPa West 5.5mph /  8.9km/h 11mph /  17.7km/h 82% 0.00in /  0mm 0 W/m2
22:04 42.9 °F /  6.1 °C 37.6 °F /  3.1 °C 30.32in /  1026.6hPa WNW 6.6mph /  10.6km/h 12mph /  19.3km/h 81.4% 0.00in /  0mm 0 W/m2
22:09 42.8 °F /  6 °C 37.4 °F /  3 °C 30.33in /  1027hPa WNW 6.6mph /  10.6km/h 11mph /  17.7km/h 81% 0.00in /  0mm 0 W/m2
22:14 42.5 °F /  5.8 °C 37.1 °F /  2.8 °C 30.33in /  1027hPa West 4.8mph /  7.7km/h 10mph /  16.1km/h 81% 0.00in /  0mm 0 W/m2
22:18 42.4 °F /  5.8 °C 37.4 °F /  3 °C 30.33in /  1027hPa West 6.2mph /  10km/h 9mph /  14.5km/h 82% 0.00in /  0mm 0 W/m2
22:24 42.4 °F /  5.8 °C 37.4 °F /  3 °C 30.33in /  1027hPa West 7.1mph /  11.4km/h 13mph /  20.9km/h 82% 0.00in /  0mm 0 W/m2
22:29 42.6 °F /  5.9 °C 37.8 °F /  3.2 °C 30.33in /  1027hPa West 8.2mph /  13.2km/h 13mph /  20.9km/h 83% 0.00in /  0mm 0 W/m2
22:34 42.8 °F /  6 °C 37.9 °F /  3.3 °C 30.33in /  1027hPa West 6.8mph /  10.9km/h 12mph /  19.3km/h 83% 0.00in /  0mm 0 W/m2
22:39 43 °F /  6.1 °C 38.4 °F /  3.6 °C 30.33in /  1027hPa West 6.9mph /  11.1km/h 12mph /  19.3km/h 83.8% 0.00in /  0mm 0 W/m2
22:44 42.9 °F /  6.1 °C 38.4 °F /  3.6 °C 30.32in /  1026.6hPa WNW 7.6mph /  12.2km/h 13mph /  20.9km/h 84% 0.00in /  0mm 0 W/m2
22:49 42.6 °F /  5.9 °C 38.1 °F /  3.4 °C 30.32in /  1026.6hPa WNW 6.8mph /  10.9km/h 11mph /  17.7km/h 84% 0.00in /  0mm 0 W/m2
22:54 42.6 °F /  5.9 °C 38.1 °F /  3.4 °C 30.32in /  1026.6hPa WNW 5.9mph /  9.5km/h 12mph /  19.3km/h 84% 0.00in /  0mm 0 W/m2
22:59 42.6 °F /  5.9 °C 38.1 °F /  3.4 °C 30.33in /  1027hPa WNW 5.6mph /  9km/h 10mph /  16.1km/h 84% 0.00in /  0mm 0 W/m2
23:04 42.6 °F /  5.9 °C 38.1 °F /  3.4 °C 30.33in /  1027hPa WNW 6.3mph /  10.1km/h 14mph /  22.5km/h 84% 0.00in /  0mm 0 W/m2
23:09 42.6 °F /  5.9 °C 38.1 °F /  3.4 °C 30.33in /  1027hPa WNW 6.6mph /  10.6km/h 14mph /  22.5km/h 84% 0.00in /  0mm 0 W/m2
23:14 42.6 °F /  5.9 °C 38.1 °F /  3.4 °C 30.33in /  1027hPa WNW 7.4mph /  11.9km/h 12mph /  19.3km/h 84% 0.00in /  0mm 0 W/m2
23:19 42.6 °F /  5.9 °C 38.1 °F /  3.4 °C 30.33in /  1027hPa WNW 6.6mph /  10.6km/h 12mph /  19.3km/h 84% 0.00in /  0mm 0 W/m2
23:24 42.4 °F /  5.8 °C 37.9 °F /  3.3 °C 30.33in /  1027hPa West 7mph /  11.3km/h 12mph /  19.3km/h 84% 0.00in /  0mm 0 W/m2
23:29 42.3 °F /  5.7 °C 37.8 °F /  3.2 °C 30.33in /  1027hPa WNW 6.9mph /  11.1km/h 12mph /  19.3km/h 84% 0.00in /  0mm 0 W/m2
23:34 42.3 °F /  5.7 °C 37.8 °F /  3.2 °C 30.34in /  1027.3hPa WNW 5.5mph /  8.9km/h 9mph /  14.5km/h 84% 0.00in /  0mm 0 W/m2
23:39 42.3 °F /  5.7 °C 37.5 °F /  3.1 °C 30.34in /  1027.3hPa West 5.8mph /  9.3km/h 10mph /  16.1km/h 83.2% 0.00in /  0mm 0 W/m2
23:43 42.3 °F /  5.7 °C 37.5 °F /  3.1 °C 30.34in /  1027.3hPa West 4.4mph /  7.1km/h 8mph /  12.9km/h 83% 0.00in /  0mm 0 W/m2
23:49 42.4 °F /  5.8 °C 37.6 °F /  3.1 °C 30.34in /  1027.3hPa WNW 5.7mph /  9.2km/h 9mph /  14.5km/h 83% 0.00in /  0mm 0 W/m2
23:54 42.4 °F /  5.8 °C 37.6 °F /  3.1 °C 30.33in /  1027hPa WNW 6.1mph /  9.8km/h 11mph /  17.7km/h 83% 0.00in /  0mm 0 W/m2
23:59 42.4 °F /  5.8 °C 37.4 °F /  3 °C 30.33in /  1027hPa West 6.6mph /  10.6km/h 13mph /  20.9km/h 82% 0.00in /  0mm 0 W/m2
Bath Spa Weather
Compliments of Weather Underground - 2 mb